»·PEaware :: SWA250 KDAL-KSTL

SWA250 :: KDAL-KSTL

FLIGHT INFORMATION

Flight Status: Arrived
Operator:
Southwest Airlines
More flights by this operator :: More flights under this callsign
Pilot: Andrew J. (13363)
Aircraft: BOEING 737-200
(B732)
More flights by this aircraft type
Origin: KDAL Dallas Love
United States
Destination: KSTL Lambert-St Louis Intl
United States
More flights between these airports :: More routes between these airports
Route: TEX5 MLC SGF KOOOP1
File this flight plan on PilotEdge
Remarks:
Altitude:
(Current/Filed)
29,000ft
Speed:
(Current/Filed)
470kts
Departed: 07-Jan-18 04:37 PM
Arrived: 07-Jan-18 05:59 PM
Distance/Time
Traveled:
474nm/1:22
Distance/Time
To Go:
Arrived

Flight Plot

Page will automatically refresh every two minutes.

Flight plan parsing failed; only flown route is shown


Map Options




Map Legend


Flown Route
Filed Route
Departure Airport
Arrival Airport
Navaid (VOR, NDB)
Fix

Horizontal Profiles

Position Reports

Time Latitude Longitude Heading Altitude Ground
Speed
07-Jan-18 16:28 32.846389 -96.849886 181 487ft 0kts
07-Jan-18 16:29 32.846389 -96.849886 181 487ft 0kts
07-Jan-18 16:30 32.846389 -96.849886 181 487ft 0kts
07-Jan-18 16:31 32.846385 -96.849886 180 488ft 0kts
07-Jan-18 16:32 32.846966 -96.849873 181 489ft 2kts
07-Jan-18 16:33 32.847431 -96.849586 264 490ft 2kts
07-Jan-18 16:34 32.847432 -96.849528 270 490ft 0kts
07-Jan-18 16:35 32.847432 -96.849528 270 490ft 0kts
07-Jan-18 16:36 32.847432 -96.849528 270 490ft 0kts
07-Jan-18 16:37 32.847432 -96.850332 269 488ft 9kts
07-Jan-18 16:38 32.848000 -96.853171 3 484ft 6kts
07-Jan-18 16:39 32.848876 -96.856523 257 476ft 21kts
07-Jan-18 16:40 32.851472 -96.861811 315 459ft 14kts
07-Jan-18 16:41 32.851258 -96.863331 204 454ft 4kts
07-Jan-18 16:42 32.851117 -96.863233 136 454ft 0kts
07-Jan-18 16:43 32.845786 -96.857014 135 474ft 113kts
07-Jan-18 16:44 32.813297 -96.817552 139 1847ft 215kts
07-Jan-18 16:45 32.764389 -96.789831 207 5133ft 201kts
07-Jan-18 16:46 32.763338 -96.847873 289 8100ft 203kts
07-Jan-18 16:47 32.822721 -96.864806 2 9273ft 297kts
07-Jan-18 16:48 32.907693 -96.852922 2 11725ft 314kts
07-Jan-18 16:49 32.993378 -96.838501 2 13984ft 325kts
07-Jan-18 16:50 33.084249 -96.822253 2 16030ft 337kts
07-Jan-18 16:51 33.177454 -96.805462 2 17900ft 346kts
07-Jan-18 16:52 33.279720 -96.787720 2 18593ft 386kts
07-Jan-18 16:53 33.375782 -96.771206 2 19990ft 392kts
07-Jan-18 16:54 33.484373 -96.752389 2 21327ft 399kts
07-Jan-18 16:55 33.587862 -96.730344 18 22437ft 414kts
07-Jan-18 16:56 33.691069 -96.666722 23 23513ft 423kts
07-Jan-18 16:57 33.795278 -96.599700 23 24482ft 429kts
07-Jan-18 16:58 33.900451 -96.531524 23 25367ft 434kts
07-Jan-18 16:59 34.006934 -96.462256 23 26159ft 438kts
07-Jan-18 17:00 34.114267 -96.392333 23 26874ft 442kts
07-Jan-18 17:01 34.222585 -96.321369 24 27488ft 447kts
07-Jan-18 17:02 34.331255 -96.249269 24 28054ft 449kts
07-Jan-18 17:03 34.441462 -96.176734 24 28533ft 453kts
07-Jan-18 17:04 34.552157 -96.103708 24 28954ft 456kts
07-Jan-18 17:05 34.645663 -96.041812 24 28957ft 467kts
07-Jan-18 17:06 34.780281 -95.952458 24 28957ft 478kts
07-Jan-18 17:07 34.877835 -95.887494 24 28957ft 485kts
07-Jan-18 17:08 35.015916 -95.795289 24 28984ft 488kts
07-Jan-18 17:09 35.114434 -95.729359 24 28984ft 488kts
07-Jan-18 17:10 35.233019 -95.649272 30 28974ft 492kts
07-Jan-18 17:11 35.373519 -95.564983 32 29013ft 491kts
07-Jan-18 17:12 35.461970 -95.477110 37 29019ft 492kts
07-Jan-18 17:13 35.563815 -95.367219 38 29020ft 485kts
07-Jan-18 17:14 35.678950 -95.239401 38 29010ft 477kts
07-Jan-18 17:15 35.760741 -95.149071 38 29011ft 473kts
07-Jan-18 17:16 35.857813 -95.041590 38 29003ft 469kts
07-Jan-18 17:17 35.954308 -94.934424 38 29006ft 468kts
07-Jan-18 17:18 36.050973 -94.826781 38 29013ft 470kts
07-Jan-18 17:19 36.145985 -94.721779 38 29002ft 474kts
07-Jan-18 17:20 36.244169 -94.612412 39 28997ft 477kts
07-Jan-18 17:21 36.342190 -94.502157 39 28994ft 480kts
07-Jan-18 17:22 36.440603 -94.390965 39 29000ft 482kts
07-Jan-18 17:23 36.538410 -94.278437 40 28995ft 483kts
07-Jan-18 17:24 36.636600 -94.166063 39 28996ft 483kts
07-Jan-18 17:25 36.735494 -94.052970 39 28992ft 484kts
07-Jan-18 17:26 36.834442 -93.939457 39 28992ft 485kts
07-Jan-18 17:27 36.933366 -93.825613 39 28996ft 486kts
07-Jan-18 17:28 37.032529 -93.711061 39 29001ft 486kts
07-Jan-18 17:29 37.128857 -93.600119 38 28996ft 484kts
07-Jan-18 17:30 37.227373 -93.486300 39 28996ft 482kts
07-Jan-18 17:31 37.324984 -93.372315 39 28995ft 480kts
07-Jan-18 17:32 37.419892 -93.259238 40 28987ft 479kts
07-Jan-18 17:33 37.516671 -93.144690 40 28988ft 477kts
07-Jan-18 17:34 37.612888 -93.030960 39 29001ft 476kts
07-Jan-18 17:35 37.709378 -92.916575 39 29022ft 478kts
07-Jan-18 17:36 37.806269 -92.801282 39 29031ft 481kts
07-Jan-18 17:37 37.903868 -92.684694 40 29032ft 485kts
07-Jan-18 17:38 38.001717 -92.567384 39 29046ft 487kts
07-Jan-18 17:39 38.099363 -92.449812 40 29052ft 490kts
07-Jan-18 17:40 38.195272 -92.335177 41 29039ft 491kts
07-Jan-18 17:41 38.291503 -92.216779 40 29041ft 491kts
07-Jan-18 17:42 38.389695 -92.097143 40 29043ft 491kts
07-Jan-18 17:43 38.488022 -91.976888 40 29044ft 491kts
07-Jan-18 17:44 38.586728 -91.855789 40 29045ft 492kts
07-Jan-18 17:45 38.685168 -91.734531 40 29033ft 493kts
07-Jan-18 17:46 38.782988 -91.613552 40 29023ft 494kts
07-Jan-18 17:47 38.881846 -91.490778 40 29027ft 495kts
07-Jan-18 17:48 38.980387 -91.367914 40 29033ft 494kts
07-Jan-18 17:49 39.060657 -91.231011 76 29017ft 497kts
07-Jan-18 17:50 39.048279 -91.060007 115 29036ft 472kts
07-Jan-18 17:51 38.999531 -90.907176 117 24687ft 455kts
07-Jan-18 17:52 38.955646 -90.771903 118 20457ft 423kts
07-Jan-18 17:53 38.912178 -90.638690 118 16092ft 394kts
07-Jan-18 17:54 38.867336 -90.518211 141 11846ft 355kts
07-Jan-18 17:55 38.787173 -90.509576 201 7731ft 300kts
07-Jan-18 17:56 38.737832 -90.464032 83 7199ft 238kts
07-Jan-18 17:57 38.787748 -90.443525 307 5748ft 219kts
07-Jan-18 17:58 38.846966 -90.457010 358 4240ft 222kts
07-Jan-18 17:59 38.895818 -90.483000 278 3125ft 192kts
07-Jan-18 18:00 38.860004 -90.512117 178 2401ft 178kts
07-Jan-18 18:01 38.815213 -90.501222 120 2407ft 162kts
07-Jan-18 18:02 38.794999 -90.454309 122 2168ft 168kts
07-Jan-18 18:03 38.771546 -90.406284 123 1297ft 167kts
07-Jan-18 18:04 38.750913 -90.364559 123 542ft 126kts
07-Jan-18 18:05 38.741861 -90.348849 151 570ft 15kts
07-Jan-18 18:06 38.737686 -90.352353 278 557ft 19kts
07-Jan-18 18:07 38.739489 -90.359226 304 550ft 23kts
07-Jan-18 18:08 38.740473 -90.359697 31 549ft 0kts
07-Jan-18 18:09 38.740473 -90.359697 31 549ft 0kts
07-Jan-18 18:10 38.740473 -90.359697 31 549ft 0kts
07-Jan-18 18:11 38.740473 -90.359697 31 549ft 0kts

Navigation Log

Ident Type
Flight plan parsing failed, navigation log unavailable